Terminal Aerodrome Forecast
Issued by NWS

Home | Current Version | Previous Version | Text Only | Print | Product List | Glossary On
Versions: 1 2 3 4 5 6 7 8 9 10 11 12 13 14
000
FTUS45 KBOU 112320
TAFAPA
TAF
KAPA 112320Z 1200/1224 06006KT P6SM SCT220
     FM120100 24006KT P6SM FEW220
     FM120200 19007KT P6SM FEW200
     FM121700 VRB04KT P6SM FEW220
     FM122000 06005KT P6SM FEW120 SCT220=

USA.gov is the U.S. government's official web portal to all federal, state and local government web resources and services.